ACA4 RJAA-CYVR
Flight info
| Callsign | ACA4 |
|---|---|
| Flight time | N/A |
| Altitude | 33000 |
| Route | GULBO Y808 PUTER/N0492F340 A590 PUGAL/N0481F350 A590 PUGGY R341 CHUUK/N0488F370 R341 ODK J123 CJAYY B757 KATCH DCT KALTS DCT YZP J523 YZT DCT KELSY DCT POWOL WHSLR8 |
| Aircraft | B77W/H-SDE1E2E3FGHIJ2J3J4J5M1RWXY/LB1D1 |
Departure
| Time | N/A |
|---|---|
| Airport | Narita International Airport (RJAA) |
Arrival
| Time | 2026-05-07 05:10 |
|---|---|
| Airport | Vancouver International Airport (CYVR) |
| Time | Latitude | Longitude | Altitude | Speed | Heading |
|---|---|---|---|---|---|
| 2026-05-07 03:50 | 53.94180 | -135.64457 | 37357 ft | 533 kts | 109° |
| 2026-05-07 03:50 | 53.92186 | -135.52334 | 37353 ft | 533 kts | 109° |
| 2026-05-07 03:51 | 53.90506 | -135.42268 | 37357 ft | 533 kts | 109° |
| 2026-05-07 03:51 | 53.88474 | -135.30178 | 37356 ft | 533 kts | 109° |
| 2026-05-07 03:52 | 53.86435 | -135.18112 | 37356 ft | 533 kts | 109° |
| 2026-05-07 03:52 | 53.84385 | -135.06053 | 37357 ft | 533 kts | 109° |
| 2026-05-07 03:53 | 53.82320 | -134.93986 | 37372 ft | 533 kts | 109° |
| 2026-05-07 03:53 | 53.80244 | -134.81942 | 37366 ft | 533 kts | 109° |
| 2026-05-07 03:54 | 53.78155 | -134.69904 | 37348 ft | 533 kts | 110° |
| 2026-05-07 03:54 | 53.76054 | -134.57877 | 37361 ft | 534 kts | 110° |
| 2026-05-07 03:55 | 53.73404 | -134.46322 | 37360 ft | 527 kts | 121° |
| 2026-05-07 03:55 | 53.69653 | -134.35770 | 37362 ft | 523 kts | 128° |
| 2026-05-07 03:56 | 53.65706 | -134.25472 | 37352 ft | 523 kts | 128° |
| 2026-05-07 03:56 | 53.61765 | -134.15120 | 37356 ft | 524 kts | 127° |
| 2026-05-07 03:57 | 53.57844 | -134.04765 | 37355 ft | 525 kts | 127° |
| 2026-05-07 03:57 | 53.53914 | -133.94394 | 37358 ft | 526 kts | 127° |
| 2026-05-07 03:58 | 53.50000 | -133.84111 | 37355 ft | 526 kts | 128° |
| 2026-05-07 03:58 | 53.46043 | -133.73767 | 37355 ft | 527 kts | 128° |
| 2026-05-07 03:59 | 53.42074 | -133.63436 | 37354 ft | 527 kts | 128° |
| 2026-05-07 03:59 | 53.38088 | -133.53101 | 37354 ft | 527 kts | 128° |
| 2026-05-07 04:00 | 53.34097 | -133.42800 | 37353 ft | 528 kts | 128° |
| 2026-05-07 04:00 | 53.30092 | -133.32503 | 37351 ft | 528 kts | 128° |
| 2026-05-07 04:01 | 53.26102 | -133.22285 | 37350 ft | 528 kts | 128° |
| 2026-05-07 04:01 | 53.22082 | -133.12033 | 37351 ft | 528 kts | 128° |
| 2026-05-07 04:02 | 53.18051 | -133.01794 | 37350 ft | 528 kts | 128° |
| 2026-05-07 04:02 | 53.13998 | -132.91543 | 37346 ft | 529 kts | 128° |
| 2026-05-07 04:03 | 53.09941 | -132.81321 | 37359 ft | 529 kts | 129° |
| 2026-05-07 04:03 | 53.05871 | -132.71109 | 37340 ft | 530 kts | 129° |
| 2026-05-07 04:04 | 53.01789 | -132.60907 | 37340 ft | 530 kts | 129° |
| 2026-05-07 04:04 | 52.97690 | -132.50705 | 37334 ft | 531 kts | 129° |
| 2026-05-07 04:05 | 52.93602 | -132.40572 | 37339 ft | 532 kts | 129° |
| 2026-05-07 04:05 | 52.89452 | -132.30324 | 37334 ft | 532 kts | 129° |
| 2026-05-07 04:06 | 52.85340 | -132.20213 | 37330 ft | 532 kts | 129° |
| 2026-05-07 04:06 | 52.81195 | -132.10058 | 37328 ft | 532 kts | 130° |
| 2026-05-07 04:07 | 52.77044 | -131.99929 | 37331 ft | 532 kts | 130° |
| 2026-05-07 04:07 | 52.72880 | -131.89812 | 37291 ft | 532 kts | 130° |
| 2026-05-07 04:08 | 52.68717 | -131.79730 | 37328 ft | 531 kts | 130° |
| 2026-05-07 04:08 | 52.64558 | -131.69705 | 37306 ft | 530 kts | 130° |
| 2026-05-07 04:09 | 52.60387 | -131.59693 | 37322 ft | 530 kts | 130° |
| 2026-05-07 04:09 | 52.56238 | -131.49771 | 37327 ft | 530 kts | 130° |
| 2026-05-07 04:10 | 52.52053 | -131.39800 | 37319 ft | 530 kts | 130° |
| 2026-05-07 04:10 | 52.47861 | -131.29849 | 37320 ft | 530 kts | 131° |
| 2026-05-07 04:11 | 52.43655 | -131.19904 | 37319 ft | 530 kts | 131° |
| 2026-05-07 04:11 | 52.39444 | -131.09987 | 37311 ft | 530 kts | 131° |
| 2026-05-07 04:12 | 52.35221 | -131.00080 | 37314 ft | 530 kts | 131° |
| 2026-05-07 04:12 | 52.31022 | -130.90268 | 37322 ft | 530 kts | 131° |
| 2026-05-07 04:13 | 52.26792 | -130.80422 | 37316 ft | 530 kts | 131° |
| 2026-05-07 04:13 | 52.22545 | -130.70573 | 37312 ft | 530 kts | 131° |
| 2026-05-07 04:14 | 52.18298 | -130.60761 | 37310 ft | 529 kts | 131° |
| 2026-05-07 04:14 | 52.14042 | -130.50967 | 37308 ft | 529 kts | 131° |
| 2026-05-07 04:15 | 52.09781 | -130.41197 | 37308 ft | 529 kts | 131° |
| 2026-05-07 04:15 | 52.05518 | -130.31462 | 37310 ft | 528 kts | 131° |
| 2026-05-07 04:16 | 52.01252 | -130.21757 | 37305 ft | 528 kts | 131° |
| 2026-05-07 04:16 | 51.96996 | -130.12111 | 37304 ft | 528 kts | 131° |
| 2026-05-07 04:17 | 51.92723 | -130.02461 | 37303 ft | 527 kts | 131° |
| 2026-05-07 04:17 | 51.88437 | -129.92817 | 37299 ft | 527 kts | 131° |
| 2026-05-07 04:18 | 51.84150 | -129.83209 | 37312 ft | 526 kts | 131° |
| 2026-05-07 04:18 | 51.79857 | -129.73623 | 37307 ft | 526 kts | 131° |
| 2026-05-07 04:19 | 51.75565 | -129.64075 | 37313 ft | 525 kts | 131° |
| 2026-05-07 04:19 | 51.71992 | -129.56151 | 37303 ft | 525 kts | 131° |
| 2026-05-07 04:21 | 51.68834 | -129.49171 | 37303 ft | 524 kts | 132° |
| 2026-05-07 04:21 | 51.64537 | -129.39700 | 37295 ft | 523 kts | 132° |
| 2026-05-07 04:22 | 51.60227 | -129.30236 | 37292 ft | 522 kts | 132° |
| 2026-05-07 04:22 | 51.55952 | -129.20883 | 37293 ft | 521 kts | 132° |
| 2026-05-07 04:23 | 51.51653 | -129.11511 | 37294 ft | 521 kts | 132° |
| 2026-05-07 04:23 | 51.47340 | -129.02146 | 37295 ft | 521 kts | 132° |
| 2026-05-07 04:24 | 51.43028 | -128.92815 | 37293 ft | 521 kts | 132° |
| 2026-05-07 04:24 | 51.38703 | -128.83490 | 37288 ft | 521 kts | 132° |
| 2026-05-07 04:25 | 51.34376 | -128.74194 | 37291 ft | 521 kts | 132° |
| 2026-05-07 04:25 | 51.30042 | -128.64914 | 37287 ft | 521 kts | 132° |
| 2026-05-07 04:26 | 51.25704 | -128.55661 | 37290 ft | 521 kts | 132° |
| 2026-05-07 04:26 | 51.21354 | -128.46413 | 37286 ft | 521 kts | 132° |
| 2026-05-07 04:27 | 51.16995 | -128.37180 | 37282 ft | 521 kts | 133° |
| 2026-05-07 04:27 | 51.12656 | -128.28022 | 37282 ft | 521 kts | 133° |
| 2026-05-07 04:28 | 51.08286 | -128.18831 | 37278 ft | 520 kts | 133° |
| 2026-05-07 04:28 | 51.03902 | -128.09642 | 37280 ft | 520 kts | 133° |
| 2026-05-07 04:29 | 50.99518 | -128.00487 | 37276 ft | 520 kts | 133° |
| 2026-05-07 04:29 | 50.95156 | -127.91408 | 37270 ft | 520 kts | 133° |
| 2026-05-07 04:30 | 50.92500 | -127.85898 | 37270 ft | 520 kts | 133° |
| 2026-05-07 04:30 | 50.88106 | -127.76803 | 37272 ft | 520 kts | 133° |
| 2026-05-07 04:31 | 50.83702 | -127.67719 | 37274 ft | 520 kts | 133° |
| 2026-05-07 04:31 | 50.79295 | -127.58663 | 37264 ft | 520 kts | 133° |
| 2026-05-07 04:32 | 50.74880 | -127.49614 | 37269 ft | 519 kts | 132° |
| 2026-05-07 04:32 | 50.70592 | -127.40438 | 37271 ft | 523 kts | 126° |
| 2026-05-07 04:33 | 50.67375 | -127.30075 | 37269 ft | 530 kts | 114° |
| 2026-05-07 04:33 | 50.65304 | -127.18872 | 37284 ft | 532 kts | 107° |
| 2026-05-07 04:34 | 50.63460 | -127.07648 | 37279 ft | 532 kts | 107° |
| 2026-05-07 04:34 | 50.61552 | -126.96373 | 37274 ft | 532 kts | 107° |
| 2026-05-07 04:35 | 50.59593 | -126.85149 | 37263 ft | 532 kts | 108° |
| 2026-05-07 04:35 | 50.57611 | -126.73930 | 37264 ft | 531 kts | 108° |
| 2026-05-07 04:36 | 50.55626 | -126.62740 | 37259 ft | 531 kts | 108° |
| 2026-05-07 04:36 | 50.53645 | -126.51622 | 37253 ft | 531 kts | 108° |
| 2026-05-07 04:37 | 50.51643 | -126.40454 | 37240 ft | 531 kts | 108° |
| 2026-05-07 04:37 | 50.49631 | -126.29300 | 37242 ft | 530 kts | 108° |
| 2026-05-07 04:38 | 50.47612 | -126.18171 | 37243 ft | 530 kts | 108° |
| 2026-05-07 04:38 | 50.45582 | -126.07044 | 37230 ft | 530 kts | 108° |
| 2026-05-07 04:39 | 50.43538 | -125.95911 | 37224 ft | 530 kts | 108° |
| 2026-05-07 04:39 | 50.41834 | -125.86669 | 37222 ft | 531 kts | 108° |
| 2026-05-07 04:40 | 50.39773 | -125.75534 | 37208 ft | 531 kts | 108° |
| 2026-05-07 04:40 | 50.37700 | -125.64404 | 37213 ft | 531 kts | 108° |
| 2026-05-07 04:41 | 50.35606 | -125.53230 | 36360 ft | 542 kts | 108° |
| 2026-05-07 04:41 | 50.34546 | -125.47599 | 35629 ft | 540 kts | 108° |
| 2026-05-07 04:41 | 50.33493 | -125.42020 | 34801 ft | 540 kts | 107° |
| 2026-05-07 04:42 | 50.32426 | -125.36385 | 33896 ft | 541 kts | 107° |
| 2026-05-07 04:42 | 50.31348 | -125.30710 | 32885 ft | 542 kts | 107° |
| 2026-05-07 04:42 | 50.30276 | -125.25080 | 31920 ft | 541 kts | 107° |
| 2026-05-07 04:42 | 50.29196 | -125.19427 | 30932 ft | 541 kts | 107° |
| 2026-05-07 04:43 | 50.28117 | -125.13797 | 30161 ft | 537 kts | 107° |
| 2026-05-07 04:43 | 50.27050 | -125.08241 | 29422 ft | 530 kts | 107° |
| 2026-05-07 04:43 | 50.25997 | -125.02776 | 28769 ft | 522 kts | 107° |
| 2026-05-07 04:43 | 50.24953 | -124.97372 | 28160 ft | 515 kts | 107° |
| 2026-05-07 04:44 | 50.23919 | -124.92039 | 27535 ft | 509 kts | 107° |
| 2026-05-07 04:44 | 50.22897 | -124.86783 | 26910 ft | 503 kts | 107° |
| 2026-05-07 04:44 | 50.21884 | -124.81579 | 26319 ft | 498 kts | 107° |
| 2026-05-07 04:44 | 50.20878 | -124.76431 | 25729 ft | 493 kts | 107° |
| 2026-05-07 04:45 | 50.19878 | -124.71333 | 25153 ft | 489 kts | 107° |
| 2026-05-07 04:45 | 50.18889 | -124.66344 | 24569 ft | 485 kts | 108° |
| 2026-05-07 04:45 | 50.17892 | -124.61329 | 23985 ft | 482 kts | 108° |
| 2026-05-07 04:45 | 50.16900 | -124.56349 | 23325 ft | 479 kts | 108° |
| 2026-05-07 04:46 | 50.15913 | -124.51404 | 22692 ft | 474 kts | 108° |
| 2026-05-07 04:46 | 50.14935 | -124.46518 | 22110 ft | 469 kts | 108° |
| 2026-05-07 04:46 | 50.13969 | -124.41701 | 21550 ft | 464 kts | 108° |
| 2026-05-07 04:46 | 50.13010 | -124.36926 | 20964 ft | 458 kts | 108° |
| 2026-05-07 04:47 | 50.12062 | -124.32219 | 20449 ft | 454 kts | 108° |
| 2026-05-07 04:47 | 50.11118 | -124.27540 | 19890 ft | 450 kts | 108° |
| 2026-05-07 04:47 | 50.10180 | -124.22902 | 19334 ft | 447 kts | 108° |
| 2026-05-07 04:47 | 50.09246 | -124.18298 | 18782 ft | 444 kts | 108° |
| 2026-05-07 04:48 | 50.08317 | -124.13730 | 18055 ft | 433 kts | 108° |
| 2026-05-07 04:48 | 50.07441 | -124.09417 | 17440 ft | 404 kts | 108° |
| 2026-05-07 04:48 | 50.06617 | -124.05384 | 16987 ft | 379 kts | 108° |
| 2026-05-07 04:48 | 50.05831 | -124.01546 | 16536 ft | 372 kts | 108° |
| 2026-05-07 04:49 | 50.05044 | -123.97707 | 16091 ft | 384 kts | 108° |
| 2026-05-07 04:49 | 50.04121 | -123.93717 | 15587 ft | 401 kts | 117° |
| 2026-05-07 04:49 | 50.02418 | -123.90207 | 15080 ft | 413 kts | 139° |
| 2026-05-07 04:49 | 50.00022 | -123.87813 | 14539 ft | 405 kts | 155° |
| 2026-05-07 04:50 | 49.97499 | -123.85891 | 14019 ft | 403 kts | 155° |
| 2026-05-07 04:50 | 49.94998 | -123.83945 | 13418 ft | 400 kts | 154° |
| 2026-05-07 04:50 | 49.92535 | -123.81993 | 12876 ft | 396 kts | 153° |
| 2026-05-07 04:50 | 49.90120 | -123.80057 | 12688 ft | 383 kts | 153° |
| 2026-05-07 04:51 | 49.87793 | -123.78182 | 12528 ft | 370 kts | 153° |
| 2026-05-07 04:51 | 49.85566 | -123.76390 | 12380 ft | 359 kts | 153° |
| 2026-05-07 04:51 | 49.83382 | -123.74637 | 12228 ft | 348 kts | 153° |
| 2026-05-07 04:51 | 49.81293 | -123.72869 | 12064 ft | 335 kts | 146° |
| 2026-05-07 04:52 | 49.79516 | -123.70632 | 11970 ft | 323 kts | 137° |
| 2026-05-07 04:52 | 49.77901 | -123.68282 | 11826 ft | 315 kts | 137° |
| 2026-05-07 04:52 | 49.76317 | -123.66012 | 11696 ft | 306 kts | 138° |
| 2026-05-07 04:52 | 49.74760 | -123.63835 | 11531 ft | 297 kts | 139° |
| 2026-05-07 04:53 | 49.73230 | -123.61722 | 11267 ft | 294 kts | 138° |
| 2026-05-07 04:53 | 49.71701 | -123.59627 | 10974 ft | 292 kts | 139° |
| 2026-05-07 04:53 | 49.70181 | -123.57551 | 10689 ft | 291 kts | 139° |
| 2026-05-07 04:53 | 49.68663 | -123.55478 | 10378 ft | 290 kts | 139° |
| 2026-05-07 04:54 | 49.67151 | -123.53414 | 10095 ft | 289 kts | 139° |
| 2026-05-07 04:54 | 49.65647 | -123.51363 | 9775 ft | 289 kts | 139° |
| 2026-05-07 04:54 | 49.64142 | -123.49313 | 9436 ft | 288 kts | 139° |
| 2026-05-07 04:54 | 49.62644 | -123.47286 | 9151 ft | 283 kts | 141° |
| 2026-05-07 04:55 | 49.60940 | -123.45881 | 8796 ft | 279 kts | 168° |
| 2026-05-07 04:55 | 49.59052 | -123.45482 | 8506 ft | 271 kts | 175° |
| 2026-05-07 04:55 | 49.57195 | -123.45159 | 8181 ft | 272 kts | 174° |
| 2026-05-07 04:55 | 49.55311 | -123.44813 | 7837 ft | 273 kts | 174° |
| 2026-05-07 04:56 | 49.54034 | -123.44575 | 7607 ft | 273 kts | 174° |
| 2026-05-07 04:56 | 49.53888 | -123.44548 | 7577 ft | 273 kts | 174° |
| 2026-05-07 04:56 | 49.52708 | -123.44327 | 7385 ft | 273 kts | 174° |
| 2026-05-07 04:57 | 49.52443 | -123.44278 | 7336 ft | 273 kts | 174° |
| 2026-05-07 04:57 | 49.50776 | -123.43971 | 7044 ft | 275 kts | 174° |
| 2026-05-07 04:57 | 49.48883 | -123.43624 | 6676 ft | 278 kts | 175° |
| 2026-05-07 04:58 | 49.46953 | -123.43267 | 6337 ft | 279 kts | 175° |
| 2026-05-07 04:58 | 49.45032 | -123.43006 | 6031 ft | 273 kts | 185° |
| 2026-05-07 04:58 | 49.43171 | -123.43366 | 5790 ft | 267 kts | 193° |
| 2026-05-07 04:58 | 49.41358 | -123.43897 | 5570 ft | 262 kts | 193° |
| 2026-05-07 04:59 | 49.39579 | -123.44396 | 5385 ft | 257 kts | 193° |
| 2026-05-07 04:59 | 49.37821 | -123.44864 | 5200 ft | 257 kts | 192° |
| 2026-05-07 04:59 | 49.36059 | -123.45330 | 5021 ft | 254 kts | 195° |
| 2026-05-07 04:59 | 49.34513 | -123.46438 | 4821 ft | 243 kts | 225° |
| 2026-05-07 05:00 | 49.33579 | -123.48505 | 4668 ft | 234 kts | 252° |
| 2026-05-07 05:00 | 49.33261 | -123.50940 | 4529 ft | 234 kts | 272° |
| 2026-05-07 05:00 | 49.33470 | -123.53747 | 4361 ft | 239 kts | 280° |
| 2026-05-07 05:00 | 49.33757 | -123.56266 | 4156 ft | 240 kts | 281° |
| 2026-05-07 05:01 | 49.34029 | -123.58766 | 4069 ft | 234 kts | 280° |
| 2026-05-07 05:01 | 49.34303 | -123.61220 | 4023 ft | 233 kts | 280° |
| 2026-05-07 05:01 | 49.34584 | -123.63683 | 4005 ft | 236 kts | 280° |
| 2026-05-07 05:01 | 49.34862 | -123.66140 | 4004 ft | 237 kts | 280° |
| 2026-05-07 05:02 | 49.35020 | -123.68638 | 3995 ft | 237 kts | 264° |
| 2026-05-07 05:02 | 49.34438 | -123.70988 | 4002 ft | 238 kts | 239° |
| 2026-05-07 05:02 | 49.33208 | -123.72705 | 3995 ft | 245 kts | 208° |
| 2026-05-07 05:02 | 49.31551 | -123.73359 | 4008 ft | 248 kts | 188° |
| 2026-05-07 05:03 | 49.29847 | -123.73071 | 3986 ft | 246 kts | 160° |
| 2026-05-07 05:03 | 49.28462 | -123.71651 | 3995 ft | 237 kts | 139° |
| 2026-05-07 05:03 | 49.27271 | -123.69913 | 3939 ft | 234 kts | 136° |
| 2026-05-07 05:03 | 49.26114 | -123.68159 | 3800 ft | 235 kts | 136° |
| 2026-05-07 05:04 | 49.24872 | -123.61768 | 3118 ft | 227 kts | 91° |
| 2026-05-07 05:04 | 49.24816 | -123.59370 | 3048 ft | 218 kts | 94° |
| 2026-05-07 05:05 | 49.24675 | -123.57107 | 3011 ft | 218 kts | 97° |
| 2026-05-07 05:05 | 49.24448 | -123.54763 | 3023 ft | 226 kts | 99° |
| 2026-05-07 05:05 | 49.24247 | -123.52921 | 3010 ft | 227 kts | 100° |
| 2026-05-07 05:05 | 49.23979 | -123.50554 | 2997 ft | 222 kts | 100° |
| 2026-05-07 05:06 | 49.23717 | -123.48245 | 2991 ft | 220 kts | 100° |
| 2026-05-07 05:06 | 49.23456 | -123.45947 | 2998 ft | 219 kts | 100° |
| 2026-05-07 05:06 | 49.23197 | -123.43667 | 2992 ft | 214 kts | 100° |
| 2026-05-07 05:06 | 49.22949 | -123.41488 | 2954 ft | 202 kts | 100° |
| 2026-05-07 05:07 | 49.22709 | -123.39371 | 2676 ft | 201 kts | 101° |
| 2026-05-07 05:07 | 49.22472 | -123.37290 | 2420 ft | 194 kts | 101° |
| 2026-05-07 05:07 | 49.22249 | -123.35323 | 2156 ft | 182 kts | 100° |
| 2026-05-07 05:07 | 49.22039 | -123.33474 | 1908 ft | 173 kts | 100° |
| 2026-05-07 05:08 | 49.21843 | -123.31747 | 1684 ft | 157 kts | 100° |
| 2026-05-07 05:08 | 49.21666 | -123.30181 | 1475 ft | 141 kts | 100° |
| 2026-05-07 05:08 | 49.21504 | -123.28759 | 1302 ft | 136 kts | 100° |
| 2026-05-07 05:08 | 49.21339 | -123.27307 | 1113 ft | 142 kts | 100° |
| 2026-05-07 05:09 | 49.21170 | -123.25826 | 877 ft | 140 kts | 100° |
| 2026-05-07 05:09 | 49.21004 | -123.24357 | 618 ft | 139 kts | 100° |
| 2026-05-07 05:09 | 49.20840 | -123.22912 | 429 ft | 140 kts | 100° |
| 2026-05-07 05:09 | 49.20671 | -123.21431 | 235 ft | 140 kts | 100° |
| 2026-05-07 05:10 | 49.20499 | -123.19992 | 68 ft | 137 kts | 100° |
| 2026-05-07 05:10 | 49.20349 | -123.18617 | 32 ft | 121 kts | 99° |
| 2026-05-07 05:10 | 49.20236 | -123.17623 | 26 ft | 68 kts | 99° |
| 2026-05-07 05:10 | 49.20175 | -123.17104 | 28 ft | 45 kts | 104° |
| 2026-05-07 05:11 | 49.20109 | -123.16905 | 28 ft | 19 kts | 129° |
| 2026-05-07 05:11 | 49.20025 | -123.16750 | 28 ft | 19 kts | 129° |
| 2026-05-07 05:11 | 49.19956 | -123.16635 | 28 ft | 7 kts | 155° |
| 2026-05-07 05:11 | 49.19922 | -123.16685 | 28 ft | 8 kts | 259° |
| 2026-05-07 05:12 | 49.19925 | -123.16779 | 28 ft | 9 kts | 278° |
| 2026-05-07 05:12 | 49.19938 | -123.16883 | 28 ft | 10 kts | 281° |
| 2026-05-07 05:12 | 49.19952 | -123.16997 | 28 ft | 11 kts | 278° |
| 2026-05-07 05:12 | 49.19964 | -123.17119 | 28 ft | 12 kts | 278° |
| 2026-05-07 05:13 | 49.19977 | -123.17245 | 28 ft | 12 kts | 279° |
| 2026-05-07 05:13 | 49.19991 | -123.17371 | 28 ft | 12 kts | 279° |
| 2026-05-07 05:13 | 49.20006 | -123.17497 | 28 ft | 12 kts | 280° |
| 2026-05-07 05:13 | 49.20021 | -123.17630 | 28 ft | 13 kts | 280° |
| 2026-05-07 05:14 | 49.20038 | -123.17770 | 28 ft | 14 kts | 280° |
| 2026-05-07 05:14 | 49.20055 | -123.17918 | 28 ft | 14 kts | 280° |
| 2026-05-07 05:14 | 49.20072 | -123.18072 | 28 ft | 15 kts | 279° |
| 2026-05-07 05:14 | 49.20089 | -123.18223 | 28 ft | 15 kts | 279° |
| 2026-05-07 05:15 | 49.20106 | -123.18376 | 28 ft | 15 kts | 280° |
| 2026-05-07 05:15 | 49.20074 | -123.18510 | 28 ft | 15 kts | 207° |
| 2026-05-07 05:15 | 49.19973 | -123.18541 | 28 ft | 15 kts | 188° |
| 2026-05-07 05:15 | 49.19870 | -123.18566 | 28 ft | 15 kts | 189° |
| 2026-05-07 05:16 | 49.19780 | -123.18522 | 28 ft | 15 kts | 117° |
| 2026-05-07 05:16 | 49.19757 | -123.18367 | 28 ft | 15 kts | 99° |
| 2026-05-07 05:16 | 49.19737 | -123.18209 | 28 ft | 15 kts | 106° |
| 2026-05-07 05:16 | 49.19675 | -123.18087 | 28 ft | 9 kts | 135° |
| 2026-05-07 05:17 | 49.19641 | -123.18009 | 28 ft | 9 kts | 112° |
| 2026-05-07 05:17 | 49.19623 | -123.17955 | 28 ft | 4 kts | 126° |
| 2026-05-07 05:17 | 49.19618 | -123.17948 | 28 ft | 1 kts | 139° |
| 2026-05-07 05:17 | 49.19611 | -123.17940 | 28 ft | 2 kts | 141° |
| 2026-05-07 05:18 | 49.19607 | -123.17935 | 28 ft | 1 kts | 141° |